createdAt,value
2019-02-26T00:01:59.938Z,8.80
2019-02-26T00:04:29.766Z,8.70
2019-02-26T00:07:00.434Z,8.70
2019-02-26T00:09:30.618Z,8.60
2019-02-26T00:12:01.069Z,8.60
2019-02-26T00:14:30.482Z,8.50
2019-02-26T00:16:59.985Z,8.50
2019-02-26T00:19:29.409Z,8.50
2019-02-26T00:21:58.840Z,8.40
2019-02-26T00:24:30.604Z,8.40
2019-02-26T00:27:01.105Z,8.30
2019-02-26T00:29:32.166Z,8.30
2019-02-26T00:32:01.993Z,8.30
2019-02-26T00:34:32.377Z,8.30
2019-02-26T00:37:04.059Z,8.20
2019-02-26T00:39:33.793Z,8.20
2019-02-26T00:42:05.151Z,8.10
2019-02-26T00:44:35.299Z,8.10
2019-02-26T00:47:06.681Z,8.10
2019-02-26T00:49:36.487Z,8.10
2019-02-26T00:52:06.404Z,8.00
2019-02-26T00:54:36.983Z,8.00
2019-02-26T00:57:08.601Z,8.00
2019-02-26T00:59:38.910Z,7.90
2019-02-26T01:02:08.789Z,7.90
2019-02-26T01:04:39.104Z,7.80
2019-02-26T01:07:09.121Z,7.80
2019-02-26T01:09:38.732Z,7.80
2019-02-26T01:12:09.245Z,7.80
2019-02-26T01:14:41.198Z,7.70
2019-02-26T01:17:12.069Z,7.70
2019-02-26T01:19:43.027Z,7.60
2019-02-26T01:22:12.602Z,7.60
2019-02-26T01:24:42.029Z,7.60
2019-02-26T01:27:11.473Z,7.60
2019-02-26T01:29:40.959Z,7.50
2019-02-26T01:32:13.213Z,7.50
2019-02-26T01:34:42.763Z,7.50
2019-02-26T01:37:12.656Z,7.40
2019-02-26T01:39:42.919Z,7.40
2019-02-26T01:42:15.532Z,7.30
2019-02-26T01:44:44.551Z,7.30
2019-02-26T01:47:14.103Z,7.30
2019-02-26T01:49:44.257Z,7.30
2019-02-26T01:52:15.102Z,7.20
2019-02-26T01:54:45.783Z,7.20
2019-02-26T01:57:17.298Z,7.10
2019-02-26T01:59:47.456Z,7.10
2019-02-26T02:02:20.070Z,7.10
2019-02-26T02:04:51.293Z,7.10
2019-02-26T02:07:21.318Z,7.00
2019-02-26T02:09:53.192Z,7.00
2019-02-26T02:12:25.416Z,7.00
2019-02-26T02:14:53.949Z,6.90
2019-02-26T02:17:23.449Z,6.90
2019-02-26T02:19:52.929Z,6.90
2019-02-26T02:22:22.421Z,6.80
2019-02-26T02:24:53.989Z,6.80
2019-02-26T02:27:26.848Z,6.80
2019-02-26T02:29:55.302Z,6.70
2019-02-26T02:32:26.636Z,6.70
2019-02-26T02:35:00.929Z,6.70
2019-02-26T02:37:30.028Z,6.60
2019-02-26T02:39:58.748Z,6.60
2019-02-26T02:42:28.243Z,6.60
2019-02-26T02:44:57.758Z,6.60
2019-02-26T02:47:28.571Z,6.50
2019-02-26T02:49:58.336Z,6.50
2019-02-26T02:52:29.738Z,6.50
2019-02-26T02:54:58.892Z,6.50
2019-02-26T02:57:30.136Z,6.50
2019-02-26T03:00:00.534Z,6.40
2019-02-26T03:02:30.507Z,6.40
2019-02-26T03:04:59.884Z,6.40
2019-02-26T03:07:29.508Z,6.30
2019-02-26T03:10:03.967Z,6.30
2019-02-26T03:12:32.166Z,6.30
2019-02-26T03:15:02.468Z,6.30
2019-02-26T03:17:34.544Z,6.20
2019-02-26T03:20:07.707Z,6.20
2019-02-26T03:22:41.535Z,6.20
2019-02-26T03:25:11.422Z,6.10
2019-02-26T03:27:42.635Z,6.10
2019-02-26T03:30:20.228Z,6.10
2019-02-26T03:32:50.565Z,6.10
2019-02-26T03:35:19.508Z,6.00
2019-02-26T03:37:51.483Z,6.00
2019-02-26T03:40:20.914Z,6.00
2019-02-26T03:42:52.436Z,5.90
2019-02-26T03:45:24.686Z,5.90
2019-02-26T03:47:55.434Z,5.90
2019-02-26T03:50:27.102Z,5.80
2019-02-26T03:52:55.952Z,5.80
2019-02-26T03:55:25.436Z,5.80
2019-02-26T03:57:58.521Z,5.80
2019-02-26T04:00:26.564Z,5.70
2019-02-26T04:02:56.188Z,5.70
2019-02-26T04:05:26.214Z,5.70
2019-02-26T04:07:58.879Z,5.70
2019-02-26T04:10:26.896Z,5.70
2019-02-26T04:12:58.145Z,5.60
2019-02-26T04:15:30.001Z,5.60
2019-02-26T04:17:58.406Z,5.60
2019-02-26T04:20:27.970Z,5.60
2019-02-26T04:22:57.491Z,5.50
2019-02-26T04:25:48.573Z,5.50
2019-02-26T04:28:45.023Z,5.50
2019-02-26T04:31:18.112Z,5.50
2019-02-26T04:33:56.026Z,5.50
2019-02-26T04:36:27.569Z,5.40
2019-02-26T04:39:27.940Z,5.50
2019-02-26T04:42:17.307Z,5.40
2019-02-26T04:45:08.920Z,5.40
2019-02-26T04:47:41.393Z,5.40
2019-02-26T04:50:10.847Z,5.30
2019-02-26T04:52:43.269Z,5.30
2019-02-26T04:55:11.424Z,5.30
2019-02-26T04:57:43.285Z,5.30
2019-02-26T05:00:12.122Z,5.30
2019-02-26T05:02:41.702Z,5.30
2019-02-26T05:05:11.334Z,5.30
2019-02-26T05:07:42.292Z,5.30
2019-02-26T05:10:12.906Z,5.30
2019-02-26T05:12:42.318Z,5.20
2019-02-26T05:15:16.773Z,5.20
2019-02-26T05:17:42.947Z,5.20
2019-02-26T05:20:15.171Z,5.20
2019-02-26T05:22:43.621Z,5.20
2019-02-26T05:25:16.356Z,5.10
2019-02-26T05:27:47.565Z,5.10
2019-02-26T05:30:18.940Z,5.10
2019-02-26T05:32:47.259Z,5.10
2019-02-26T05:35:17.956Z,5.10
2019-02-26T05:37:47.748Z,5.10
2019-02-26T05:40:21.486Z,5.00
2019-02-26T05:42:48.422Z,5.00
2019-02-26T05:45:17.924Z,5.00
2019-02-26T05:47:48.860Z,5.00
2019-02-26T05:50:18.548Z,5.00
2019-02-26T05:52:50.250Z,4.90
2019-02-26T05:55:20.582Z,4.90
2019-02-26T05:57:50.145Z,4.90
2019-02-26T06:00:22.676Z,4.90
2019-02-26T06:02:51.083Z,4.90
2019-02-26T06:05:23.141Z,4.80
2019-02-26T06:07:52.156Z,4.80
2019-02-26T06:10:24.337Z,4.80
2019-02-26T06:12:52.854Z,4.80
2019-02-26T06:15:25.709Z,4.70
2019-02-26T06:17:55.922Z,4.70
2019-02-26T06:20:28.065Z,4.70
2019-02-26T06:22:56.500Z,4.70
2019-02-26T06:25:26.065Z,4.60
2019-02-26T06:27:55.652Z,4.60
2019-02-26T06:30:25.067Z,4.60
2019-02-26T06:32:54.510Z,4.60
2019-02-26T06:35:23.970Z,4.60
2019-02-26T06:37:53.460Z,4.50
2019-02-26T06:40:23.028Z,4.50
2019-02-26T06:42:52.580Z,4.50
2019-02-26T06:45:21.974Z,4.50
2019-02-26T06:47:53.984Z,4.50
2019-02-26T06:50:22.644Z,4.50
2019-02-26T06:52:52.078Z,4.50
2019-02-26T06:55:21.492Z,4.50
2019-02-26T06:57:52.714Z,4.50
2019-02-26T07:00:24.577Z,4.50
2019-02-26T07:02:53.142Z,4.50
2019-02-26T07:05:24.496Z,4.50
2019-02-26T07:07:55.085Z,4.60
2019-02-26T07:10:28.235Z,4.50
2019-02-26T07:12:55.856Z,4.60
2019-02-26T07:15:28.798Z,4.60
2019-02-26T07:18:00.119Z,4.60
2019-02-26T07:20:33.881Z,4.60
2019-02-26T07:22:58.460Z,4.70
2019-02-26T07:25:27.821Z,4.70
2019-02-26T07:27:58.906Z,4.80
2019-02-26T07:30:28.899Z,4.80
2019-02-26T07:32:58.536Z,4.80
2019-02-26T07:35:28.836Z,4.80
2019-02-26T07:38:01.186Z,4.90
2019-02-26T07:40:30.525Z,4.90
2019-02-26T07:43:04.942Z,5.00
2019-02-26T07:45:32.385Z,5.00
2019-02-26T07:48:01.899Z,5.00
2019-02-26T07:50:36.951Z,5.10
2019-02-26T07:53:02.562Z,5.10
2019-02-26T07:55:32.868Z,5.20
2019-02-26T07:58:03.280Z,5.30
2019-02-26T08:00:37.002Z,5.30
2019-02-26T08:03:04.658Z,5.30
2019-02-26T08:05:34.938Z,5.40
2019-02-26T08:08:04.397Z,5.40
2019-02-26T08:10:37.203Z,5.50
2019-02-26T08:13:06.250Z,5.60
2019-02-26T08:15:37.521Z,5.60
2019-02-26T08:18:07.582Z,5.70
2019-02-26T08:20:37.585Z,5.80
2019-02-26T08:23:09.132Z,5.80
2019-02-26T08:25:40.103Z,5.90
2019-02-26T08:28:09.542Z,6.00
2019-02-26T08:30:42.324Z,6.00
2019-02-26T08:33:10.217Z,6.10
2019-02-26T08:35:39.834Z,6.20
2019-02-26T08:38:09.401Z,6.30
2019-02-26T08:40:38.849Z,6.40
2019-02-26T08:43:08.330Z,6.50
2019-02-26T08:45:37.987Z,6.60
2019-02-26T08:48:07.588Z,6.70
2019-02-26T08:50:39.058Z,6.80
2019-02-26T08:53:08.220Z,6.90
2019-02-26T08:55:37.710Z,7.00
2019-02-26T08:58:07.769Z,7.10
2019-02-26T09:00:38.380Z,7.10
2019-02-26T09:03:08.808Z,7.30
2019-02-26T09:05:39.005Z,7.40
2019-02-26T09:08:10.859Z,7.40
2019-02-26T09:10:41.320Z,7.60
2019-02-26T09:13:11.465Z,7.70
2019-02-26T09:15:43.159Z,7.80
2019-02-26T09:18:12.785Z,7.90
2019-02-26T09:20:42.263Z,8.00
2019-02-26T09:23:16.306Z,8.20
2019-02-26T09:25:43.077Z,8.30
2019-02-26T09:28:12.615Z,8.40
2019-02-26T09:30:42.187Z,8.50
2019-02-26T09:33:12.158Z,8.60
2019-02-26T09:35:41.722Z,8.70
2019-02-26T09:38:12.363Z,8.80
2019-02-26T09:40:42.323Z,8.90
2019-02-26T09:43:24.437Z,9.10
2019-02-26T09:45:54.562Z,9.20
2019-02-26T09:48:29.773Z,9.30
2019-02-26T09:51:05.350Z,9.40
2019-02-26T09:53:35.935Z,9.50
2019-02-26T09:56:05.555Z,9.60
2019-02-26T09:58:35.059Z,9.70
2019-02-26T10:01:06.406Z,9.90
2019-02-26T10:03:38.943Z,10.00
2019-02-26T10:06:06.829Z,10.10
2019-02-26T10:08:43.769Z,10.20
2019-02-26T10:11:20.736Z,10.30
2019-02-26T10:13:51.201Z,10.50
2019-02-26T10:16:36.963Z,10.60
2019-02-26T10:19:07.865Z,10.70
2019-02-26T10:24:23.018Z,11.00
2019-02-26T10:26:50.767Z,11.10
2019-02-26T10:29:20.301Z,11.30
2019-02-26T10:31:49.681Z,11.40
2019-02-26T10:34:20.961Z,11.60
2019-02-26T10:36:51.817Z,11.70
2019-02-26T10:39:23.183Z,11.80
2019-02-26T10:41:52.521Z,12.00
2019-02-26T10:44:22.007Z,12.20
2019-02-26T10:46:51.549Z,12.30
2019-02-26T10:49:28.721Z,12.50
2019-02-26T10:51:58.634Z,12.70
2019-02-26T10:54:30.915Z,12.80
2019-02-26T10:57:00.368Z,12.90
2019-02-26T10:59:30.487Z,13.00
2019-02-26T11:02:14.564Z,13.20
2019-02-26T11:04:46.892Z,13.30
2019-02-26T11:07:16.102Z,13.50
2019-02-26T11:09:49.391Z,13.60
2019-02-26T11:12:16.747Z,13.70
2019-02-26T11:14:46.253Z,13.80
2019-02-26T11:17:17.876Z,13.90
2019-02-26T11:19:48.013Z,14.00
2019-02-26T11:22:18.705Z,14.10
2019-02-26T11:24:50.698Z,14.20
2019-02-26T11:30:02.065Z,14.50
2019-02-26T11:32:42.255Z,14.60
2019-02-26T11:35:14.682Z,14.80
2019-02-26T11:37:47.196Z,14.90
2019-02-26T11:40:25.266Z,15.10
2019-02-26T11:42:55.015Z,15.20
2019-02-26T11:45:24.708Z,15.30
2019-02-26T11:48:08.529Z,15.40
2019-02-26T11:50:44.595Z,15.50
2019-02-26T11:53:13.633Z,15.70
2019-02-26T11:55:43.263Z,15.80
2019-02-26T11:58:15.709Z,15.90
2019-02-26T12:00:51.603Z,16.00
2019-02-26T12:03:24.913Z,16.10
2019-02-26T12:05:54.202Z,16.10
2019-02-26T12:08:25.725Z,16.20
2019-02-26T12:10:57.675Z,16.30
2019-02-26T12:13:27.716Z,16.40
2019-02-26T12:15:56.747Z,16.40
2019-02-26T12:18:26.255Z,16.50
2019-02-26T12:20:55.807Z,16.60
2019-02-26T12:23:31.125Z,16.60
2019-02-26T12:26:03.854Z,16.70
2019-02-26T12:28:52.831Z,16.80
2019-02-26T12:31:25.329Z,16.90
2019-02-26T12:33:54.491Z,16.90
2019-02-26T12:36:26.483Z,17.00
2019-02-26T12:38:56.494Z,17.00
2019-02-26T12:41:27.785Z,17.10
2019-02-26T12:43:59.361Z,17.10
2019-02-26T12:46:31.221Z,17.20
2019-02-26T12:54:37.796Z,17.30
2019-02-26T12:57:06.718Z,17.40
2019-02-26T12:59:36.735Z,17.40
2019-02-26T13:02:20.911Z,17.50
2019-02-26T13:04:55.195Z,17.50
2019-02-26T13:10:02.891Z,17.60
2019-02-26T13:12:32.393Z,17.70
2019-02-26T13:15:04.878Z,17.70
2019-02-26T13:17:33.480Z,17.80
2019-02-26T13:20:05.835Z,17.80
2019-02-26T13:22:34.425Z,17.80
2019-02-26T13:25:13.336Z,17.80
2019-02-26T13:27:38.759Z,17.90
2019-02-26T13:30:13.935Z,17.90
2019-02-26T13:32:56.057Z,17.90
2019-02-26T13:35:14.480Z,18.00
2019-02-26T13:37:45.977Z,18.00
2019-02-26T13:40:18.498Z,18.10
2019-02-26T13:42:59.292Z,18.20
2019-02-26T13:45:21.448Z,18.20
2019-02-26T13:47:51.172Z,18.20
2019-02-26T13:50:23.714Z,18.20
2019-02-26T13:52:53.272Z,18.20
2019-02-26T13:55:22.753Z,18.30
2019-02-26T13:57:52.406Z,18.30
2019-02-26T14:00:26.342Z,18.30
2019-02-26T14:02:53.210Z,18.30
2019-02-26T14:05:22.764Z,18.40
2019-02-26T14:07:52.468Z,18.40
2019-02-26T14:10:23.052Z,18.40
2019-02-26T14:12:52.522Z,18.50
2019-02-26T14:15:29.105Z,18.50
2019-02-26T14:17:58.724Z,18.50
2019-02-26T14:20:28.939Z,18.50
2019-02-26T14:22:58.434Z,18.50
2019-02-26T14:25:27.832Z,18.60
2019-02-26T14:27:57.461Z,18.60
2019-02-26T14:30:26.915Z,18.60
2019-02-26T14:32:56.849Z,18.70
2019-02-26T14:35:26.370Z,18.70
2019-02-26T14:37:55.936Z,18.70
2019-02-26T14:40:25.366Z,18.70
2019-02-26T14:42:54.808Z,18.70
2019-02-26T14:45:25.750Z,18.70
2019-02-26T14:47:56.026Z,18.70
2019-02-26T14:50:26.476Z,18.70
2019-02-26T14:52:56.053Z,18.80
2019-02-26T14:55:25.650Z,18.80
2019-02-26T14:57:55.191Z,18.80
2019-02-26T15:00:26.885Z,18.80
2019-02-26T15:02:56.652Z,18.90
2019-02-26T15:05:26.140Z,18.90
2019-02-26T15:07:55.546Z,18.80
2019-02-26T15:10:25.168Z,18.90
2019-02-26T15:12:54.765Z,18.90
2019-02-26T15:15:24.278Z,18.90
2019-02-26T15:17:53.791Z,19.00
2019-02-26T15:20:24.359Z,19.00
2019-02-26T15:22:53.861Z,18.90
2019-02-26T15:25:27.911Z,19.00
2019-02-26T15:28:04.691Z,19.00
2019-02-26T15:30:28.537Z,19.00
2019-02-26T15:32:58.132Z,18.90
2019-02-26T15:35:27.836Z,18.90
2019-02-26T15:37:57.320Z,18.90
2019-02-26T15:40:26.772Z,18.90
2019-02-26T15:42:56.440Z,18.80
2019-02-26T15:45:29.905Z,18.80
2019-02-26T15:48:03.445Z,18.90
2019-02-26T15:50:30.522Z,18.90
2019-02-26T15:52:59.921Z,19.00
2019-02-26T15:55:31.014Z,19.00
2019-02-26T15:58:03.960Z,19.10
2019-02-26T16:00:31.686Z,19.10
2019-02-26T16:03:01.205Z,19.20
2019-02-26T16:05:39.862Z,19.20
2019-02-26T16:08:09.589Z,19.20
2019-02-26T16:10:39.095Z,19.30
2019-02-26T16:13:08.564Z,19.30
2019-02-26T16:15:39.277Z,19.30
2019-02-26T16:18:08.715Z,19.30
2019-02-26T16:20:38.618Z,19.30
2019-02-26T16:23:08.166Z,19.30
2019-02-26T16:25:37.556Z,19.30
2019-02-26T16:28:09.153Z,19.30
2019-02-26T16:30:38.943Z,19.30
2019-02-26T16:33:08.417Z,19.30
2019-02-26T16:35:37.905Z,19.30
2019-02-26T16:38:07.567Z,19.30
2019-02-26T16:40:37.013Z,19.40
2019-02-26T16:43:06.757Z,19.40
2019-02-26T16:45:36.299Z,19.40
2019-02-26T16:48:05.800Z,19.40
2019-02-26T16:50:35.302Z,19.40
2019-02-26T16:53:04.935Z,19.40
2019-02-26T16:55:34.531Z,19.40
2019-02-26T16:58:04.007Z,19.40
2019-02-26T17:00:33.667Z,19.30
2019-02-26T17:03:03.139Z,19.30
2019-02-26T17:05:32.698Z,19.20
2019-02-26T17:08:02.390Z,19.20
2019-02-26T17:10:31.869Z,19.10
2019-02-26T17:13:02.338Z,19.00
2019-02-26T17:15:34.758Z,19.00
2019-02-26T17:18:04.479Z,18.90
2019-02-26T17:20:34.023Z,18.80
2019-02-26T17:23:03.463Z,18.80
2019-02-26T17:25:32.891Z,18.70
2019-02-26T17:28:02.376Z,18.60
2019-02-26T17:30:31.896Z,18.50
2019-02-26T17:33:01.379Z,18.40
2019-02-26T17:35:30.949Z,18.30
2019-02-26T17:38:00.417Z,18.20
2019-02-26T17:40:29.986Z,18.20
2019-02-26T17:42:59.681Z,18.10
2019-02-26T17:45:31.682Z,18.00
2019-02-26T17:48:01.217Z,17.90
2019-02-26T17:50:38.647Z,17.80
2019-02-26T17:53:08.502Z,17.70
2019-02-26T17:55:38.164Z,17.70
2019-02-26T17:58:09.737Z,17.50
2019-02-26T18:00:40.492Z,17.40
2019-02-26T18:03:09.969Z,17.40
2019-02-26T18:05:50.616Z,17.30
2019-02-26T18:08:10.562Z,17.20
2019-02-26T18:10:40.059Z,17.10
2019-02-26T18:13:09.548Z,17.00
2019-02-26T18:15:39.083Z,16.90
2019-02-26T18:18:08.446Z,16.80
2019-02-26T18:20:37.937Z,16.70
2019-02-26T18:23:07.416Z,16.60
2019-02-26T18:25:36.899Z,16.50
2019-02-26T18:28:08.648Z,16.40
2019-02-26T18:30:37.541Z,16.30
2019-02-26T18:33:07.498Z,16.20
2019-02-26T18:35:36.962Z,16.10
2019-02-26T18:38:06.559Z,16.10
2019-02-26T18:40:36.044Z,16.00
2019-02-26T18:43:05.528Z,15.90
2019-02-26T18:45:34.982Z,15.80
2019-02-26T18:48:04.456Z,15.80
2019-02-26T18:50:33.976Z,15.70
2019-02-26T18:53:03.466Z,15.70
2019-02-26T18:55:33.030Z,15.60
2019-02-26T18:58:03.482Z,15.50
2019-02-26T19:00:34.320Z,15.40
2019-02-26T19:03:03.906Z,15.40
2019-02-26T19:05:33.294Z,15.30
2019-02-26T19:08:05.603Z,15.20
2019-02-26T19:10:33.982Z,15.10
2019-02-26T19:13:03.456Z,15.10
2019-02-26T19:15:34.361Z,15.00
2019-02-26T19:18:03.953Z,14.90
2019-02-26T19:20:38.266Z,14.80
2019-02-26T19:23:07.901Z,14.70
2019-02-26T19:25:41.443Z,14.60
2019-02-26T19:28:09.829Z,14.50
2019-02-26T19:30:39.418Z,14.50
2019-02-26T19:33:09.208Z,14.40
2019-02-26T19:35:40.434Z,14.40
2019-02-26T19:38:09.850Z,14.30
2019-02-26T19:40:51.220Z,14.30
2019-02-26T19:43:20.745Z,14.20
2019-02-26T19:45:50.264Z,14.10
2019-02-26T19:48:19.802Z,14.10
2019-02-26T19:50:49.263Z,14.10
2019-02-26T19:53:18.882Z,14.00
2019-02-26T19:55:50.066Z,14.00
2019-02-26T19:58:19.594Z,13.90
2019-02-26T20:00:52.735Z,13.90
2019-02-26T20:03:20.146Z,13.90
2019-02-26T20:05:49.527Z,13.90
2019-02-26T20:08:19.074Z,13.80
2019-02-26T20:10:51.683Z,13.80
2019-02-26T20:13:19.714Z,13.80
2019-02-26T20:15:49.205Z,13.70
2019-02-26T20:18:20.890Z,13.70
2019-02-26T20:20:49.782Z,13.70
2019-02-26T20:23:19.372Z,13.70
2019-02-26T20:25:49.017Z,13.70
2019-02-26T20:28:18.547Z,13.70
2019-02-26T20:30:48.915Z,13.70
2019-02-26T20:33:18.469Z,13.70
2019-02-26T20:35:47.962Z,13.70
2019-02-26T20:38:17.413Z,13.70
2019-02-26T20:40:48.927Z,13.60
2019-02-26T20:43:18.039Z,13.50
2019-02-26T20:45:48.678Z,13.50
2019-02-26T20:48:18.542Z,13.40
2019-02-26T20:50:48.064Z,13.30
2019-02-26T20:53:17.460Z,13.20
2019-02-26T20:55:52.459Z,13.10
2019-02-26T20:58:18.200Z,13.10
2019-02-26T21:00:48.318Z,13.00
2019-02-26T21:03:17.891Z,12.90
2019-02-26T21:05:47.393Z,12.80
2019-02-26T21:08:16.863Z,12.70
2019-02-26T21:10:48.100Z,12.70
2019-02-26T21:13:17.462Z,12.60
2019-02-26T21:15:47.384Z,12.50
2019-02-26T21:18:17.457Z,12.50
2019-02-26T21:20:46.949Z,12.40
2019-02-26T21:23:16.423Z,12.30
2019-02-26T21:25:47.555Z,12.30
2019-02-26T21:28:17.113Z,12.20
2019-02-26T21:30:46.592Z,12.10
2019-02-26T21:33:16.111Z,12.10
2019-02-26T21:35:45.664Z,12.00
2019-02-26T21:38:15.075Z,11.90
2019-02-26T21:40:48.691Z,11.90
2019-02-26T21:43:15.725Z,11.80
2019-02-26T21:45:49.133Z,11.80
2019-02-26T21:48:16.254Z,11.70
2019-02-26T21:50:45.746Z,11.60
2019-02-26T21:53:15.996Z,11.60
2019-02-26T21:55:45.927Z,11.50
2019-02-26T21:58:15.395Z,11.40
2019-02-26T22:00:44.883Z,11.40
2019-02-26T22:03:14.345Z,11.30
2019-02-26T22:05:43.837Z,11.30
2019-02-26T22:08:13.243Z,11.20
2019-02-26T22:10:42.798Z,11.20
2019-02-26T22:13:12.870Z,11.10
2019-02-26T22:15:44.725Z,11.00
2019-02-26T22:18:13.449Z,11.00
2019-02-26T22:20:42.847Z,10.90
2019-02-26T22:23:12.332Z,10.90
2019-02-26T22:25:41.767Z,10.80
2019-02-26T22:28:11.224Z,10.80
2019-02-26T22:30:40.747Z,10.70
2019-02-26T22:33:10.207Z,10.70
2019-02-26T22:35:39.671Z,10.60
2019-02-26T22:38:09.081Z,10.60
2019-02-26T22:40:39.171Z,10.50
2019-02-26T22:43:08.681Z,10.50
2019-02-26T22:45:38.259Z,10.40
2019-02-26T22:48:08.695Z,10.40
2019-02-26T22:50:38.253Z,10.30
2019-02-26T22:53:07.717Z,10.30
2019-02-26T22:55:37.183Z,10.30
2019-02-26T22:58:06.635Z,10.30
2019-02-26T23:00:49.659Z,10.30
2019-02-26T23:03:19.362Z,10.20
2019-02-26T23:05:48.931Z,10.20
2019-02-26T23:08:18.576Z,10.20
2019-02-26T23:10:48.287Z,10.20
2019-02-26T23:13:17.919Z,10.10
2019-02-26T23:15:47.747Z,10.10
2019-02-26T23:18:17.697Z,10.10
2019-02-26T23:20:47.244Z,10.10
2019-02-26T23:23:16.791Z,10.10
2019-02-26T23:25:46.383Z,10.10
2019-02-26T23:28:16.009Z,10.00
2019-02-26T23:30:45.591Z,10.00
2019-02-26T23:33:15.771Z,10.00
2019-02-26T23:35:45.383Z,10.00
2019-02-26T23:38:14.921Z,9.90
2019-02-26T23:40:44.392Z,9.90
2019-02-26T23:43:13.837Z,9.90
2019-02-26T23:45:43.453Z,9.80
2019-02-26T23:48:12.901Z,9.80
2019-02-26T23:50:47.034Z,9.80
2019-02-26T23:53:13.645Z,9.70
2019-02-26T23:55:46.426Z,9.60
2019-02-26T23:58:14.310Z,9.60
